createdAt,value
2022-08-08T00:00:52.902Z,2.97
2022-08-08T00:03:31.758Z,2.70
2022-08-08T00:06:28.378Z,3.58
2022-08-08T00:09:16.154Z,3.40
2022-08-08T00:12:13.142Z,3.33
2022-08-08T00:15:03.343Z,3.38
2022-08-08T00:17:58.558Z,2.97
2022-08-08T00:20:49.915Z,3.00
2022-08-08T00:23:42.699Z,3.38
2022-08-08T00:26:26.039Z,3.17
2022-08-08T00:29:08.058Z,2.80
2022-08-08T00:32:14.885Z,3.33
2022-08-08T00:35:20.030Z,3.08
2022-08-08T00:38:32.318Z,2.63
2022-08-08T00:41:54.482Z,3.35
2022-08-08T00:44:56.394Z,3.35
2022-08-08T00:48:04.937Z,2.92
2022-08-08T00:51:09.932Z,3.53
2022-08-08T00:54:19.126Z,3.35
2022-08-08T00:57:23.477Z,3.45
2022-08-08T01:00:22.437Z,3.17
2022-08-08T01:03:58.004Z,3.30
2022-08-08T01:06:37.777Z,3.42
2022-08-08T01:09:36.032Z,2.70
2022-08-08T01:12:43.452Z,3.63
2022-08-08T01:15:44.441Z,3.03
2022-08-08T01:18:52.997Z,3.25
2022-08-08T01:22:13.505Z,3.17
2022-08-08T01:24:50.902Z,2.97
2022-08-08T01:27:52.590Z,3.45
2022-08-08T01:30:41.348Z,3.30
2022-08-08T01:33:23.424Z,3.17
2022-08-08T01:36:25.670Z,3.15
2022-08-08T01:39:34.817Z,3.03
2022-08-08T01:42:41.424Z,3.15
2022-08-08T01:45:39.512Z,2.92
2022-08-08T01:48:30.512Z,3.20
2022-08-08T01:52:21.092Z,3.13
2022-08-08T01:55:45.295Z,3.20
2022-08-08T01:58:11.560Z,2.75
2022-08-08T02:01:08.998Z,2.95
2022-08-08T02:04:02.714Z,3.33
2022-08-08T02:06:55.145Z,2.92
2022-08-08T02:10:02.799Z,2.60
2022-08-08T02:12:31.493Z,3.22
2022-08-08T02:15:12.554Z,3.20
2022-08-08T02:18:04.204Z,3.25
2022-08-08T02:21:24.094Z,3.55
2022-08-08T02:24:00.364Z,3.55
2022-08-08T02:26:34.689Z,4.00
2022-08-08T02:29:41.725Z,4.15
2022-08-08T02:32:42.879Z,3.72
2022-08-08T02:36:03.301Z,4.30
2022-08-08T02:38:56.604Z,7.10
2022-08-08T02:41:58.723Z,7.47
2022-08-08T02:44:57.137Z,7.93
2022-08-08T02:47:41.650Z,5.95
2022-08-08T02:50:33.730Z,4.40
2022-08-08T02:53:24.066Z,4.45
2022-08-08T02:56:01.825Z,4.18
2022-08-08T02:59:25.827Z,4.38
2022-08-08T03:02:30.362Z,4.10
2022-08-08T03:05:32.826Z,4.60
2022-08-08T03:08:34.796Z,4.25
2022-08-08T03:11:25.610Z,4.22
2022-08-08T03:15:58.852Z,4.70
2022-08-08T03:17:39.829Z,5.55
2022-08-08T03:20:11.691Z,5.60
2022-08-08T03:22:46.419Z,5.85
2022-08-08T03:25:18.598Z,7.20
2022-08-08T03:28:23.919Z,7.07
2022-08-08T03:31:07.888Z,7.15
2022-08-08T03:33:54.770Z,7.13
2022-08-08T03:36:30.384Z,6.35
2022-08-08T03:39:07.549Z,7.07
2022-08-08T03:42:28.674Z,7.80
2022-08-08T03:44:38.392Z,6.53
2022-08-08T03:47:19.369Z,6.70
2022-08-08T03:49:57.547Z,7.70
2022-08-08T03:52:44.474Z,6.28
2022-08-08T03:55:20.129Z,6.75
2022-08-08T03:58:32.024Z,6.35
2022-08-08T04:01:24.670Z,6.05
2022-08-08T04:03:58.075Z,5.30
2022-08-08T04:06:31.174Z,5.32
2022-08-08T04:09:10.856Z,5.20
2022-08-08T04:11:48.437Z,4.78
2022-08-08T04:14:36.267Z,4.25
2022-08-08T04:17:22.601Z,4.32
2022-08-08T04:19:56.563Z,4.57
2022-08-08T04:22:29.605Z,3.72
2022-08-08T04:24:59.311Z,3.90
2022-08-08T04:28:01.614Z,4.32
2022-08-08T04:30:18.329Z,4.93
2022-08-08T04:32:50.114Z,3.97
2022-08-08T04:35:22.507Z,4.53
2022-08-08T04:37:53.480Z,4.13
2022-08-08T04:40:26.451Z,4.03
2022-08-08T04:43:01.028Z,5.18
2022-08-08T04:45:34.671Z,4.20
2022-08-08T04:48:03.740Z,4.20
2022-08-08T04:50:38.272Z,3.67
2022-08-08T04:53:14.034Z,4.72
2022-08-08T04:56:00.775Z,4.38
2022-08-08T04:58:33.089Z,4.45
2022-08-08T05:01:08.934Z,4.57
2022-08-08T05:04:10.457Z,4.20
2022-08-08T05:06:42.295Z,3.85
2022-08-08T05:09:12.125Z,4.53
2022-08-08T05:11:42.843Z,4.25
2022-08-08T05:14:15.648Z,4.40
2022-08-08T05:17:00.965Z,4.43
2022-08-08T05:20:12.463Z,4.75
2022-08-08T05:22:30.695Z,4.20
2022-08-08T05:25:00.530Z,5.10
2022-08-08T05:27:33.501Z,4.95
2022-08-08T05:30:11.275Z,4.57
2022-08-08T05:32:46.517Z,4.07
2022-08-08T05:38:00.863Z,4.32
2022-08-08T05:40:48.968Z,4.53
2022-08-08T05:43:39.277Z,4.50
2022-08-08T05:46:15.128Z,4.50
2022-08-08T05:48:52.351Z,4.45
2022-08-08T05:51:25.818Z,5.03
2022-08-08T05:54:27.626Z,4.10
2022-08-08T05:56:47.041Z,4.30
2022-08-08T05:59:58.683Z,3.95
2022-08-08T06:02:40.729Z,4.32
2022-08-08T06:05:33.725Z,3.75
2022-08-08T06:08:09.791Z,4.32
2022-08-08T06:10:53.676Z,4.43
2022-08-08T06:13:23.503Z,4.78
2022-08-08T06:15:57.204Z,4.80
2022-08-08T06:18:36.747Z,4.38
2022-08-08T06:21:28.609Z,4.20
2022-08-08T06:24:03.672Z,3.97
2022-08-08T06:26:50.675Z,4.28
2022-08-08T06:29:56.375Z,4.10
2022-08-08T06:32:28.870Z,4.10
2022-08-08T06:36:00.532Z,4.50
2022-08-08T06:38:00.398Z,4.57
2022-08-08T06:40:36.813Z,4.28
2022-08-08T06:43:19.218Z,4.60
2022-08-08T06:45:58.323Z,4.05
2022-08-08T06:48:26.714Z,4.05
2022-08-08T06:50:57.925Z,4.63
2022-08-08T06:53:38.880Z,4.28
2022-08-08T06:56:09.328Z,4.40
2022-08-08T06:58:39.967Z,3.95
2022-08-08T07:02:16.650Z,4.10
2022-08-08T07:04:39.726Z,4.13
2022-08-08T07:07:11.613Z,4.22
2022-08-08T07:09:59.225Z,5.07
2022-08-08T07:12:40.478Z,3.97
2022-08-08T07:15:32.656Z,3.90
2022-08-08T07:18:35.879Z,4.38
2022-08-08T07:21:04.751Z,4.63
2022-08-08T07:24:03.329Z,4.43
2022-08-08T07:26:54.794Z,4.47
2022-08-08T07:30:00.115Z,3.92
2022-08-08T07:32:16.926Z,6.13
2022-08-08T07:35:00.406Z,4.40
2022-08-08T07:37:56.237Z,4.82
2022-08-08T07:40:30.099Z,4.38
2022-08-08T07:43:09.115Z,4.15
2022-08-08T07:46:05.714Z,4.45
2022-08-08T07:48:32.228Z,4.45
2022-08-08T07:51:04.516Z,3.35
2022-08-08T07:54:03.076Z,3.13
2022-08-08T07:57:10.449Z,3.70
2022-08-08T07:59:57.540Z,3.60
2022-08-08T08:02:35.491Z,4.07
2022-08-08T08:05:16.340Z,4.63
2022-08-08T08:07:54.566Z,3.58
2022-08-08T08:10:30.226Z,3.70
2022-08-08T08:13:42.812Z,3.72
2022-08-08T08:16:23.183Z,3.85
2022-08-08T08:19:03.108Z,3.72
2022-08-08T08:21:52.387Z,3.78
2022-08-08T08:24:51.732Z,3.25
2022-08-08T08:27:22.450Z,3.42
2022-08-08T08:29:54.506Z,3.38
2022-08-08T08:32:35.955Z,4.30
2022-08-08T08:35:10.918Z,3.53
2022-08-08T08:38:13.013Z,3.28
2022-08-08T08:40:37.720Z,2.90
2022-08-08T08:43:15.252Z,2.80
2022-08-08T08:45:48.548Z,4.50
2022-08-08T08:48:19.242Z,3.13
2022-08-08T08:50:52.352Z,2.80
2022-08-08T08:53:27.935Z,2.83
2022-08-08T08:56:23.704Z,3.22
2022-08-08T08:58:58.649Z,2.63
2022-08-08T09:01:36.181Z,3.55
2022-08-08T09:04:31.710Z,2.80
2022-08-08T09:07:12.175Z,2.70
2022-08-08T09:09:54.908Z,2.80
2022-08-08T09:12:29.263Z,3.10
2022-08-08T09:14:59.387Z,2.92
2022-08-08T09:17:41.600Z,3.20
2022-08-08T09:21:59.580Z,2.40
2022-08-08T09:23:11.557Z,4.35
2022-08-08T09:26:12.789Z,2.60
2022-08-08T09:28:41.159Z,2.85
2022-08-08T09:31:24.129Z,2.40
2022-08-08T09:34:30.538Z,2.70
2022-08-08T09:36:51.832Z,2.67
2022-08-08T09:39:46.978Z,3.53
2022-08-08T09:42:25.723Z,3.13
2022-08-08T09:45:15.524Z,2.42
2022-08-08T09:48:05.120Z,2.22
2022-08-08T09:50:37.402Z,3.30
2022-08-08T09:53:23.747Z,2.92
2022-08-08T09:56:06.127Z,2.42
2022-08-08T09:58:46.089Z,3.10
2022-08-08T10:02:02.163Z,3.00
2022-08-08T10:04:35.497Z,5.25
2022-08-08T10:07:07.500Z,2.60
2022-08-08T10:09:59.686Z,2.80
2022-08-08T10:12:53.768Z,2.85
2022-08-08T10:15:27.844Z,2.65
2022-08-08T10:18:10.152Z,2.92
2022-08-08T10:20:58.025Z,2.70
2022-08-08T10:23:58.748Z,2.53
2022-08-08T10:26:57.048Z,2.78
2022-08-08T10:29:58.716Z,2.95
2022-08-08T10:32:39.173Z,4.15
2022-08-08T10:36:06.555Z,3.58
2022-08-08T10:38:05.695Z,3.35
2022-08-08T10:40:39.048Z,3.05
2022-08-08T10:43:09.962Z,3.15
2022-08-08T10:45:55.527Z,3.10
2022-08-08T10:48:58.942Z,2.75
2022-08-08T10:51:31.429Z,2.97
2022-08-08T10:54:25.171Z,3.17
2022-08-08T10:57:03.821Z,4.38
2022-08-08T10:59:39.704Z,2.97
2022-08-08T11:02:09.643Z,2.88
2022-08-08T11:04:52.991Z,3.65
2022-08-08T11:08:31.707Z,3.03
2022-08-08T11:10:28.610Z,2.78
2022-08-08T11:13:28.693Z,2.80
2022-08-08T11:15:53.211Z,2.78
2022-08-08T11:18:30.625Z,3.10
2022-08-08T11:21:01.639Z,3.28
2022-08-08T11:23:42.424Z,3.35
2022-08-08T11:26:18.750Z,2.90
2022-08-08T11:28:47.777Z,3.03
2022-08-08T11:31:20.948Z,3.00
2022-08-08T11:34:02.877Z,2.90
2022-08-08T11:36:33.193Z,4.25
2022-08-08T11:39:06.227Z,3.13
2022-08-08T11:41:42.271Z,3.28
2022-08-08T11:44:11.985Z,3.10
2022-08-08T11:46:40.370Z,2.95
2022-08-08T11:49:14.676Z,3.00
2022-08-08T11:51:50.254Z,2.55
2022-08-08T11:54:38.006Z,2.80
2022-08-08T11:57:27.191Z,3.03
2022-08-08T12:00:05.854Z,4.03
2022-08-08T12:02:57.549Z,2.30
2022-08-08T12:05:37.325Z,2.80
2022-08-08T12:08:06.242Z,2.35
2022-08-08T12:10:34.089Z,2.53
2022-08-08T12:13:14.253Z,2.35
2022-08-08T12:15:51.968Z,2.47
2022-08-08T12:18:28.683Z,2.22
2022-08-08T12:20:58.810Z,2.30
2022-08-08T12:23:42.846Z,2.30
2022-08-08T12:26:28.355Z,2.70
2022-08-08T12:29:25.679Z,2.20
2022-08-08T12:32:22.471Z,2.80
2022-08-08T12:35:13.175Z,2.35
2022-08-08T12:38:02.424Z,2.55
2022-08-08T12:40:54.253Z,2.50
2022-08-08T12:43:47.674Z,2.60
2022-08-08T12:46:26.122Z,2.25
2022-08-08T12:49:24.961Z,2.78
2022-08-08T12:51:58.942Z,2.53
2022-08-08T12:54:33.258Z,2.78
2022-08-08T12:57:17.801Z,2.80
2022-08-08T13:00:06.181Z,2.70
2022-08-08T13:02:51.347Z,2.25
2022-08-08T13:05:26.458Z,2.80
2022-08-08T13:08:17.334Z,2.60
2022-08-08T13:11:00.393Z,2.63
2022-08-08T13:13:36.766Z,3.33
2022-08-08T13:16:25.151Z,2.60
2022-08-08T13:19:06.762Z,3.30
2022-08-08T13:22:05.287Z,3.10
2022-08-08T13:24:48.411Z,3.75
2022-08-08T13:27:19.455Z,2.70
2022-08-08T13:29:52.895Z,2.72
2022-08-08T13:32:23.833Z,3.05
2022-08-08T13:35:04.553Z,3.08
2022-08-08T13:38:05.626Z,2.70
2022-08-08T13:40:28.199Z,3.22
2022-08-08T13:42:57.764Z,3.47
2022-08-08T13:45:26.550Z,3.80
2022-08-08T13:48:01.423Z,3.25
2022-08-08T13:50:35.237Z,3.38
2022-08-08T13:53:24.863Z,3.70
2022-08-08T13:56:01.836Z,3.00
2022-08-08T13:58:30.447Z,3.10
2022-08-08T14:01:00.534Z,3.13
2022-08-08T14:03:52.354Z,3.20
2022-08-08T14:06:32.205Z,4.28
2022-08-08T14:09:24.258Z,2.78
2022-08-08T14:11:48.598Z,2.67
2022-08-08T14:14:20.451Z,2.95
2022-08-08T14:16:52.248Z,3.13
2022-08-08T14:19:57.303Z,2.75
2022-08-08T14:22:25.041Z,2.75
2022-08-08T14:24:58.887Z,2.83
2022-08-08T14:27:34.231Z,2.90
2022-08-08T14:30:18.176Z,2.50
2022-08-08T14:32:55.100Z,2.60
2022-08-08T14:35:35.404Z,2.63
2022-08-08T14:38:33.858Z,2.53
2022-08-08T14:40:59.060Z,2.38
2022-08-08T14:44:02.295Z,2.50
2022-08-08T14:46:31.141Z,2.58
2022-08-08T14:49:09.494Z,2.90
2022-08-08T14:51:52.306Z,2.88
2022-08-08T14:54:28.401Z,2.83
2022-08-08T14:56:57.201Z,2.88
2022-08-08T14:59:44.029Z,2.55
2022-08-08T15:02:16.190Z,2.70
2022-08-08T15:04:50.510Z,2.97
2022-08-08T15:07:22.900Z,2.97
2022-08-08T15:10:05.995Z,2.50
2022-08-08T15:12:37.322Z,3.03
2022-08-08T15:15:09.169Z,2.50
2022-08-08T15:17:48.298Z,4.03
2022-08-08T15:20:17.134Z,3.25
2022-08-08T15:22:48.611Z,2.53
2022-08-08T15:25:26.095Z,3.40
2022-08-08T15:28:04.843Z,3.30
2022-08-08T15:30:45.877Z,3.20
2022-08-08T15:33:35.147Z,2.67
2022-08-08T15:36:03.898Z,2.97
2022-08-08T15:38:31.077Z,3.47
2022-08-08T15:41:01.034Z,2.63
2022-08-08T15:43:35.879Z,4.93
2022-08-08T15:46:04.293Z,2.60
2022-08-08T15:48:31.490Z,2.50
2022-08-08T15:51:06.484Z,3.35
2022-08-08T15:53:40.631Z,2.80
2022-08-08T15:56:20.111Z,2.83
2022-08-08T15:58:49.242Z,3.05
2022-08-08T16:01:18.049Z,2.72
2022-08-08T16:03:48.088Z,2.53
2022-08-08T16:06:27.799Z,2.80
2022-08-08T16:13:00.174Z,2.80
2022-08-08T16:13:12.126Z,2.67
2022-08-08T16:14:36.549Z,3.10
2022-08-08T16:17:06.098Z,2.90
2022-08-08T16:19:57.275Z,3.00
2022-08-08T16:22:29.938Z,2.95
2022-08-08T16:24:58.220Z,3.08
2022-08-08T16:27:25.408Z,2.63
2022-08-08T16:30:08.826Z,3.05
2022-08-08T16:32:42.386Z,2.67
2022-08-08T16:35:10.057Z,2.80
2022-08-08T16:37:42.958Z,2.88
2022-08-08T16:40:17.457Z,2.80
2022-08-08T16:42:51.844Z,3.00
2022-08-08T16:46:36.966Z,2.80
2022-08-08T16:48:13.431Z,2.80
2022-08-08T16:50:42.825Z,2.80
2022-08-08T16:55:04.914Z,3.50
2022-08-08T16:56:00.517Z,2.80
2022-08-08T16:58:34.367Z,2.78
2022-08-08T17:01:05.822Z,3.40
2022-08-08T17:04:00.470Z,3.05
2022-08-08T17:06:39.511Z,2.72
2022-08-08T17:09:15.079Z,2.83
2022-08-08T17:11:52.269Z,3.70
2022-08-08T17:14:27.355Z,3.63
2022-08-08T17:17:03.747Z,5.22
2022-08-08T17:19:31.798Z,4.70
2022-08-08T17:22:06.363Z,3.65
2022-08-08T17:24:34.761Z,3.83
2022-08-08T17:27:04.802Z,4.50
2022-08-08T17:29:36.532Z,3.85
2022-08-08T17:32:11.153Z,4.35
2022-08-08T17:35:14.647Z,4.15
2022-08-08T17:37:32.662Z,5.25
2022-08-08T17:40:12.942Z,3.95
2022-08-08T17:42:47.124Z,4.05
2022-08-08T17:45:22.691Z,4.40
2022-08-08T17:47:51.605Z,4.05
2022-08-08T17:50:20.145Z,4.07
2022-08-08T17:52:48.603Z,3.30
2022-08-08T17:56:07.215Z,3.53
2022-08-08T17:58:03.977Z,4.07
2022-08-08T18:00:32.042Z,4.60
2022-08-08T18:03:08.539Z,4.47
2022-08-08T18:05:47.939Z,3.72
2022-08-08T18:08:24.484Z,3.80
2022-08-08T18:11:07.785Z,3.45
2022-08-08T18:13:41.870Z,3.70
2022-08-08T18:16:10.902Z,3.45
2022-08-08T18:18:42.681Z,3.50
2022-08-08T18:21:34.472Z,4.03
2022-08-08T18:24:04.131Z,3.70
2022-08-08T18:26:34.014Z,3.55
2022-08-08T18:29:02.453Z,3.42
2022-08-08T18:31:33.368Z,3.92
2022-08-08T18:34:24.987Z,3.38
2022-08-08T18:36:48.211Z,4.03
2022-08-08T18:39:27.824Z,3.83
2022-08-08T18:42:03.076Z,3.67
2022-08-08T18:44:35.966Z,3.83
2022-08-08T18:47:04.369Z,4.07
2022-08-08T18:49:57.343Z,3.28
2022-08-08T18:52:23.206Z,3.85
2022-08-08T18:55:00.043Z,4.30
2022-08-08T18:57:41.091Z,4.40
2022-08-08T19:00:21.394Z,3.58
2022-08-08T19:02:55.632Z,4.03
2022-08-08T19:05:37.771Z,3.25
2022-08-08T19:08:24.402Z,3.90
2022-08-08T19:11:02.278Z,3.50
2022-08-08T19:13:53.947Z,3.55
2022-08-08T19:16:28.484Z,3.78
2022-08-08T19:19:02.480Z,3.85
2022-08-08T19:21:33.328Z,3.75
2022-08-08T19:24:05.467Z,3.72
2022-08-08T19:26:37.257Z,4.45
2022-08-08T19:29:05.914Z,4.30
2022-08-08T19:31:35.380Z,3.30
2022-08-08T19:34:30.480Z,3.35
2022-08-08T19:36:58.666Z,3.80
2022-08-08T19:39:34.952Z,3.70
2022-08-08T19:42:07.139Z,3.65
2022-08-08T19:44:45.718Z,3.40
2022-08-08T19:47:16.635Z,3.90
2022-08-08T19:50:00.679Z,3.80
2022-08-08T19:52:36.971Z,3.92
2022-08-08T19:55:12.680Z,3.95
2022-08-08T19:57:45.400Z,3.63
2022-08-08T20:00:30.536Z,4.03
2022-08-08T20:03:14.657Z,3.90
2022-08-08T20:06:14.664Z,3.60
2022-08-08T20:08:37.131Z,3.70
2022-08-08T20:11:05.761Z,3.83
2022-08-08T20:14:33.449Z,4.07
2022-08-08T20:16:22.003Z,4.60
2022-08-08T20:18:57.300Z,3.78
2022-08-08T20:21:26.004Z,3.67
2022-08-08T20:23:57.453Z,3.88
2022-08-08T20:26:33.649Z,3.65
2022-08-08T20:29:03.404Z,4.05
2022-08-08T20:32:07.030Z,3.83
2022-08-08T20:34:30.139Z,3.95
2022-08-08T20:37:02.565Z,3.75
2022-08-08T20:39:39.295Z,3.47
2022-08-08T20:42:09.370Z,4.38
2022-08-08T20:44:37.621Z,3.47
2022-08-08T20:47:22.702Z,3.22
2022-08-08T20:49:54.411Z,3.90
2022-08-08T20:52:28.402Z,3.85
2022-08-08T20:54:59.613Z,3.90
2022-08-08T20:57:28.367Z,3.30
2022-08-08T20:59:56.337Z,3.33
2022-08-08T21:02:26.728Z,3.42
2022-08-08T21:05:00.970Z,4.22
2022-08-08T21:08:33.859Z,3.45
2022-08-08T21:10:20.992Z,3.50
2022-08-08T21:12:54.150Z,3.58
2022-08-08T21:16:06.000Z,4.25
2022-08-08T21:18:09.733Z,3.92
2022-08-08T21:20:39.574Z,3.35
2022-08-08T21:23:13.196Z,3.30
2022-08-08T21:25:49.188Z,3.55
2022-08-08T21:28:33.671Z,3.70
2022-08-08T21:31:22.706Z,3.45
2022-08-08T21:33:58.074Z,3.72
2022-08-08T21:36:28.956Z,3.83
2022-08-08T21:38:58.073Z,3.60
2022-08-08T21:41:29.019Z,3.92
2022-08-08T21:44:11.051Z,3.85
2022-08-08T21:48:01.533Z,4.30
2022-08-08T21:49:28.789Z,3.72
2022-08-08T21:54:33.578Z,4.18
2022-08-08T21:54:54.315Z,4.18
2022-08-08T21:57:29.655Z,3.50
2022-08-08T22:00:14.656Z,4.50
2022-08-08T22:02:44.154Z,4.55
2022-08-08T22:05:15.023Z,3.83
2022-08-08T22:07:48.342Z,4.15
2022-08-08T22:10:18.697Z,4.38
2022-08-08T22:13:18.261Z,4.35
2022-08-08T22:15:59.617Z,3.60
2022-08-08T22:18:30.220Z,4.78
2022-08-08T22:21:01.622Z,4.22
2022-08-08T22:23:40.911Z,4.35
2022-08-08T22:26:28.075Z,4.35
2022-08-08T22:29:04.311Z,4.13
2022-08-08T22:31:43.261Z,4.78
2022-08-08T22:34:15.089Z,4.28
2022-08-08T22:36:43.133Z,4.20
2022-08-08T22:39:18.981Z,4.60
2022-08-08T22:41:49.468Z,4.55
2022-08-08T22:44:17.334Z,4.75
2022-08-08T22:46:45.733Z,4.95
2022-08-08T22:49:19.881Z,4.70
2022-08-08T22:51:48.139Z,4.10
2022-08-08T22:54:30.001Z,4.60
2022-08-08T22:57:08.642Z,4.47
2022-08-08T22:59:58.746Z,4.63
2022-08-08T23:02:29.217Z,3.72
2022-08-08T23:04:57.757Z,4.75
2022-08-08T23:07:51.178Z,4.80
2022-08-08T23:10:19.494Z,4.60
2022-08-08T23:12:51.711Z,4.80
2022-08-08T23:16:41.023Z,4.68
2022-08-08T23:18:11.511Z,5.20
2022-08-08T23:20:44.358Z,5.18
2022-08-08T23:23:18.808Z,6.40
2022-08-08T23:25:49.380Z,4.57
2022-08-08T23:28:18.707Z,4.80
2022-08-08T23:30:47.926Z,5.53
2022-08-08T23:33:21.063Z,5.90
2022-08-08T23:36:08.809Z,4.75
2022-08-08T23:38:41.841Z,4.97
2022-08-08T23:41:24.753Z,4.95
2022-08-08T23:43:56.409Z,5.22
2022-08-08T23:49:03.019Z,6.13
2022-08-08T23:49:15.402Z,5.32
2022-08-08T23:52:06.214Z,5.18
2022-08-08T23:54:41.729Z,4.80
2022-08-08T23:57:27.736Z,5.07
